sensor_id;sensor_type;location;lat;lon;timestamp;P1;durP1;ratioP1;P2;durP2;ratioP2
11386;SDS011;5748;53.102;8.456;2022-10-16T00:01:52;1.23;;;1.13;;
11386;SDS011;5748;53.102;8.456;2022-10-16T00:04:21;1.30;;;1.20;;
11386;SDS011;5748;53.102;8.456;2022-10-16T00:07:07;1.33;;;1.23;;
11386;SDS011;5748;53.102;8.456;2022-10-16T00:09:35;1.20;;;1.10;;
11386;SDS011;5748;53.102;8.456;2022-10-16T00:12:12;1.50;;;1.40;;
11386;SDS011;5748;53.102;8.456;2022-10-16T00:14:46;1.27;;;1.17;;
11386;SDS011;5748;53.102;8.456;2022-10-16T00:20:12;1.50;;;1.40;;
11386;SDS011;5748;53.102;8.456;2022-10-16T00:22:41;1.30;;;1.20;;
11386;SDS011;5748;53.102;8.456;2022-10-16T00:25:09;1.33;;;1.10;;
11386;SDS011;5748;53.102;8.456;2022-10-16T00:27:37;1.30;;;1.13;;
11386;SDS011;5748;53.102;8.456;2022-10-16T00:30:13;1.40;;;1.30;;
11386;SDS011;5748;53.102;8.456;2022-10-16T00:32:41;1.57;;;1.23;;
11386;SDS011;5748;53.102;8.456;2022-10-16T00:35:08;1.30;;;1.10;;
11386;SDS011;5748;53.102;8.456;2022-10-16T00:37:37;1.30;;;1.20;;
11386;SDS011;5748;53.102;8.456;2022-10-16T00:40:05;1.10;;;1.10;;
11386;SDS011;5748;53.102;8.456;2022-10-16T00:45:21;1.13;;;1.03;;
11386;SDS011;5748;53.102;8.456;2022-10-16T00:47:48;0.90;;;0.90;;
11386;SDS011;5748;53.102;8.456;2022-10-16T00:50:18;1.10;;;1.00;;
11386;SDS011;5748;53.102;8.456;2022-10-16T00:52:57;1.17;;;1.07;;
11386;SDS011;5748;53.102;8.456;2022-10-16T00:55:27;1.17;;;1.07;;
11386;SDS011;5748;53.102;8.456;2022-10-16T00:57:56;1.03;;;1.00;;
11386;SDS011;5748;53.102;8.456;2022-10-16T01:00:32;1.10;;;1.00;;
11386;SDS011;5748;53.102;8.456;2022-10-16T01:03:00;1.10;;;1.00;;
11386;SDS011;5748;53.102;8.456;2022-10-16T01:05:30;1.10;;;1.00;;
11386;SDS011;5748;53.102;8.456;2022-10-16T01:08:08;1.10;;;1.00;;
11386;SDS011;5748;53.102;8.456;2022-10-16T01:10:40;1.53;;;0.83;;
11386;SDS011;5748;53.102;8.456;2022-10-16T01:13:22;1.37;;;1.10;;
11386;SDS011;5748;53.102;8.456;2022-10-16T01:18:59;1.27;;;0.97;;
11386;SDS011;5748;53.102;8.456;2022-10-16T01:24:17;0.70;;;0.70;;
11386;SDS011;5748;53.102;8.456;2022-10-16T01:29:59;1.27;;;0.80;;
11386;SDS011;5748;53.102;8.456;2022-10-16T01:35:04;0.80;;;0.80;;
11386;SDS011;5748;53.102;8.456;2022-10-16T01:37:46;0.93;;;0.90;;
11386;SDS011;5748;53.102;8.456;2022-10-16T01:40:19;1.00;;;0.90;;
11386;SDS011;5748;53.102;8.456;2022-10-16T01:42:51;0.90;;;0.90;;
11386;SDS011;5748;53.102;8.456;2022-10-16T01:45:22;0.80;;;0.80;;
11386;SDS011;5748;53.102;8.456;2022-10-16T01:47:50;1.57;;;1.00;;
11386;SDS011;5748;53.102;8.456;2022-10-16T01:50:24;1.47;;;1.00;;
11386;SDS011;5748;53.102;8.456;2022-10-16T01:52:52;0.80;;;0.80;;
11386;SDS011;5748;53.102;8.456;2022-10-16T01:55:24;1.10;;;1.00;;
11386;SDS011;5748;53.102;8.456;2022-10-16T01:58:10;0.70;;;0.70;;
11386;SDS011;5748;53.102;8.456;2022-10-16T02:00:40;1.03;;;1.00;;
11386;SDS011;5748;53.102;8.456;2022-10-16T02:03:11;1.20;;;1.10;;
11386;SDS011;5748;53.102;8.456;2022-10-16T02:05:42;1.10;;;0.90;;
11386;SDS011;5748;53.102;8.456;2022-10-16T02:08:13;1.63;;;1.00;;
11386;SDS011;5748;53.102;8.456;2022-10-16T02:10:40;0.97;;;0.97;;
11386;SDS011;5748;53.102;8.456;2022-10-16T02:13:10;1.00;;;0.90;;
11386;SDS011;5748;53.102;8.456;2022-10-16T02:15:39;0.90;;;0.90;;
11386;SDS011;5748;53.102;8.456;2022-10-16T02:18:07;0.83;;;0.83;;
11386;SDS011;5748;53.102;8.456;2022-10-16T02:20:37;0.80;;;0.80;;
11386;SDS011;5748;53.102;8.456;2022-10-16T02:23:11;0.90;;;0.90;;
11386;SDS011;5748;53.102;8.456;2022-10-16T02:25:44;1.00;;;0.90;;
11386;SDS011;5748;53.102;8.456;2022-10-16T02:28:16;1.13;;;0.90;;
11386;SDS011;5748;53.102;8.456;2022-10-16T02:30:50;0.93;;;0.90;;
11386;SDS011;5748;53.102;8.456;2022-10-16T02:33:22;1.07;;;1.00;;
11386;SDS011;5748;53.102;8.456;2022-10-16T02:35:59;0.97;;;0.93;;
11386;SDS011;5748;53.102;8.456;2022-10-16T02:38:27;2.50;;;1.00;;
11386;SDS011;5748;53.102;8.456;2022-10-16T02:40:56;0.90;;;0.90;;
11386;SDS011;5748;53.102;8.456;2022-10-16T02:45:56;1.37;;;1.00;;
11386;SDS011;5748;53.102;8.456;2022-10-16T02:48:25;1.00;;;0.90;;
11386;SDS011;5748;53.102;8.456;2022-10-16T02:50:52;1.33;;;0.77;;
11386;SDS011;5748;53.102;8.456;2022-10-16T02:53:19;1.87;;;1.00;;
11386;SDS011;5748;53.102;8.456;2022-10-16T02:55:46;0.87;;;0.80;;
11386;SDS011;5748;53.102;8.456;2022-10-16T02:58:13;1.07;;;0.93;;
11386;SDS011;5748;53.102;8.456;2022-10-16T03:00:42;0.87;;;0.87;;
11386;SDS011;5748;53.102;8.456;2022-10-16T03:03:09;1.33;;;0.87;;
11386;SDS011;5748;53.102;8.456;2022-10-16T03:05:36;1.00;;;0.90;;
11386;SDS011;5748;53.102;8.456;2022-10-16T03:08:03;0.80;;;0.80;;
11386;SDS011;5748;53.102;8.456;2022-10-16T03:10:36;1.40;;;1.00;;
11386;SDS011;5748;53.102;8.456;2022-10-16T03:13:03;0.97;;;0.90;;
11386;SDS011;5748;53.102;8.456;2022-10-16T03:15:36;0.93;;;0.90;;
11386;SDS011;5748;53.102;8.456;2022-10-16T03:18:04;1.40;;;1.07;;
11386;SDS011;5748;53.102;8.456;2022-10-16T03:20:32;2.87;;;1.10;;
11386;SDS011;5748;53.102;8.456;2022-10-16T03:22:59;0.90;;;0.90;;
11386;SDS011;5748;53.102;8.456;2022-10-16T03:25:27;1.00;;;1.00;;
11386;SDS011;5748;53.102;8.456;2022-10-16T03:27:54;1.60;;;1.20;;
11386;SDS011;5748;53.102;8.456;2022-10-16T03:30:21;1.43;;;1.20;;
11386;SDS011;5748;53.102;8.456;2022-10-16T03:32:48;1.33;;;1.10;;
11386;SDS011;5748;53.102;8.456;2022-10-16T03:35:20;1.10;;;1.00;;
11386;SDS011;5748;53.102;8.456;2022-10-16T03:37:49;2.17;;;1.10;;
11386;SDS011;5748;53.102;8.456;2022-10-16T03:40:25;1.10;;;1.00;;
11386;SDS011;5748;53.102;8.456;2022-10-16T03:42:53;1.17;;;1.07;;
11386;SDS011;5748;53.102;8.456;2022-10-16T03:45:29;1.30;;;1.10;;
11386;SDS011;5748;53.102;8.456;2022-10-16T03:47:56;1.27;;;1.10;;
11386;SDS011;5748;53.102;8.456;2022-10-16T03:50:24;1.20;;;1.10;;
11386;SDS011;5748;53.102;8.456;2022-10-16T03:55:45;1.33;;;1.23;;
11386;SDS011;5748;53.102;8.456;2022-10-16T03:58:31;1.40;;;1.20;;
11386;SDS011;5748;53.102;8.456;2022-10-16T04:00:58;1.60;;;1.50;;
11386;SDS011;5748;53.102;8.456;2022-10-16T04:03:25;1.40;;;1.30;;
11386;SDS011;5748;53.102;8.456;2022-10-16T04:05:54;1.50;;;1.40;;
11386;SDS011;5748;53.102;8.456;2022-10-16T04:08:21;2.13;;;1.53;;
11386;SDS011;5748;53.102;8.456;2022-10-16T04:10:50;1.50;;;1.40;;
11386;SDS011;5748;53.102;8.456;2022-10-16T04:16:15;1.97;;;1.77;;
11386;SDS011;5748;53.102;8.456;2022-10-16T04:21:17;1.50;;;1.40;;
11386;SDS011;5748;53.102;8.456;2022-10-16T04:23:44;1.83;;;1.60;;
11386;SDS011;5748;53.102;8.456;2022-10-16T04:26:12;1.77;;;1.67;;
11386;SDS011;5748;53.102;8.456;2022-10-16T04:28:39;1.70;;;1.60;;
11386;SDS011;5748;53.102;8.456;2022-10-16T04:31:06;2.10;;;1.63;;
11386;SDS011;5748;53.102;8.456;2022-10-16T04:33:33;2.07;;;1.87;;
11386;SDS011;5748;53.102;8.456;2022-10-16T04:36:01;2.10;;;1.80;;
11386;SDS011;5748;53.102;8.456;2022-10-16T04:38:30;2.80;;;1.80;;
11386;SDS011;5748;53.102;8.456;2022-10-16T04:40:59;2.70;;;1.73;;
11386;SDS011;5748;53.102;8.456;2022-10-16T04:43:37;2.53;;;1.63;;
11386;SDS011;5748;53.102;8.456;2022-10-16T04:46:04;1.63;;;1.53;;
11386;SDS011;5748;53.102;8.456;2022-10-16T04:48:31;1.70;;;1.60;;
11386;SDS011;5748;53.102;8.456;2022-10-16T04:51:00;2.93;;;2.10;;
11386;SDS011;5748;53.102;8.456;2022-10-16T04:53:37;1.80;;;1.60;;
11386;SDS011;5748;53.102;8.456;2022-10-16T04:56:04;2.40;;;1.83;;
11386;SDS011;5748;53.102;8.456;2022-10-16T04:58:41;2.20;;;2.00;;
11386;SDS011;5748;53.102;8.456;2022-10-16T05:01:08;2.40;;;2.20;;
11386;SDS011;5748;53.102;8.456;2022-10-16T05:03:41;2.73;;;2.07;;
11386;SDS011;5748;53.102;8.456;2022-10-16T05:06:09;2.10;;;1.90;;
11386;SDS011;5748;53.102;8.456;2022-10-16T05:08:38;1.90;;;1.80;;
11386;SDS011;5748;53.102;8.456;2022-10-16T05:11:05;2.10;;;1.90;;
11386;SDS011;5748;53.102;8.456;2022-10-16T05:13:32;2.40;;;2.20;;
11386;SDS011;5748;53.102;8.456;2022-10-16T05:16:00;2.40;;;2.20;;
11386;SDS011;5748;53.102;8.456;2022-10-16T05:18:27;2.23;;;2.03;;
11386;SDS011;5748;53.102;8.456;2022-10-16T05:20:54;2.20;;;2.00;;
11386;SDS011;5748;53.102;8.456;2022-10-16T05:23:22;2.80;;;2.30;;
11386;SDS011;5748;53.102;8.456;2022-10-16T05:25:53;4.30;;;2.50;;
11386;SDS011;5748;53.102;8.456;2022-10-16T05:28:23;2.80;;;2.27;;
11386;SDS011;5748;53.102;8.456;2022-10-16T05:30:50;2.80;;;2.20;;
11386;SDS011;5748;53.102;8.456;2022-10-16T05:33:19;2.37;;;2.00;;
11386;SDS011;5748;53.102;8.456;2022-10-16T05:36:00;2.30;;;2.10;;
11386;SDS011;5748;53.102;8.456;2022-10-16T05:38:29;2.27;;;2.00;;
11386;SDS011;5748;53.102;8.456;2022-10-16T05:41:10;2.10;;;1.90;;
11386;SDS011;5748;53.102;8.456;2022-10-16T05:43:37;2.13;;;1.97;;
11386;SDS011;5748;53.102;8.456;2022-10-16T05:46:04;1.90;;;1.80;;
11386;SDS011;5748;53.102;8.456;2022-10-16T05:48:38;2.40;;;2.20;;
11386;SDS011;5748;53.102;8.456;2022-10-16T05:51:05;2.77;;;2.30;;
11386;SDS011;5748;53.102;8.456;2022-10-16T05:53:35;2.17;;;1.97;;
11386;SDS011;5748;53.102;8.456;2022-10-16T05:56:12;2.43;;;2.23;;
11386;SDS011;5748;53.102;8.456;2022-10-16T05:58:40;1.80;;;1.70;;
11386;SDS011;5748;53.102;8.456;2022-10-16T06:01:09;2.90;;;2.30;;
11386;SDS011;5748;53.102;8.456;2022-10-16T06:03:38;2.67;;;2.33;;
11386;SDS011;5748;53.102;8.456;2022-10-16T06:06:09;2.70;;;2.50;;
11386;SDS011;5748;53.102;8.456;2022-10-16T06:08:38;2.27;;;2.07;;
11386;SDS011;5748;53.102;8.456;2022-10-16T06:11:06;2.60;;;2.40;;
11386;SDS011;5748;53.102;8.456;2022-10-16T06:13:37;2.40;;;2.13;;
11386;SDS011;5748;53.102;8.456;2022-10-16T06:16:07;2.87;;;2.50;;
11386;SDS011;5748;53.102;8.456;2022-10-16T06:18:34;2.53;;;2.33;;
11386;SDS011;5748;53.102;8.456;2022-10-16T06:21:06;2.87;;;2.53;;
11386;SDS011;5748;53.102;8.456;2022-10-16T06:23:35;2.57;;;2.37;;
11386;SDS011;5748;53.102;8.456;2022-10-16T06:26:06;2.40;;;2.13;;
11386;SDS011;5748;53.102;8.456;2022-10-16T06:28:34;2.27;;;2.07;;
11386;SDS011;5748;53.102;8.456;2022-10-16T06:31:04;2.70;;;2.33;;
11386;SDS011;5748;53.102;8.456;2022-10-16T06:33:36;2.73;;;2.30;;
11386;SDS011;5748;53.102;8.456;2022-10-16T06:36:04;3.87;;;2.20;;
11386;SDS011;5748;53.102;8.456;2022-10-16T06:38:34;2.20;;;2.00;;
11386;SDS011;5748;53.102;8.456;2022-10-16T06:41:01;2.30;;;2.10;;
11386;SDS011;5748;53.102;8.456;2022-10-16T06:43:29;1.80;;;1.70;;
11386;SDS011;5748;53.102;8.456;2022-10-16T06:45:58;2.43;;;2.23;;
11386;SDS011;5748;53.102;8.456;2022-10-16T06:48:27;2.23;;;2.03;;
11386;SDS011;5748;53.102;8.456;2022-10-16T06:50:56;2.17;;;1.97;;
11386;SDS011;5748;53.102;8.456;2022-10-16T06:53:25;3.00;;;2.00;;
11386;SDS011;5748;53.102;8.456;2022-10-16T06:55:54;2.20;;;2.00;;
11386;SDS011;5748;53.102;8.456;2022-10-16T06:58:21;2.10;;;1.90;;
11386;SDS011;5748;53.102;8.456;2022-10-16T07:00:54;3.20;;;2.33;;
11386;SDS011;5748;53.102;8.456;2022-10-16T07:03:23;2.30;;;1.97;;
11386;SDS011;5748;53.102;8.456;2022-10-16T07:05:52;2.20;;;2.00;;
11386;SDS011;5748;53.102;8.456;2022-10-16T07:08:19;2.50;;;2.30;;
11386;SDS011;5748;53.102;8.456;2022-10-16T07:10:48;2.40;;;2.20;;
11386;SDS011;5748;53.102;8.456;2022-10-16T07:13:15;2.57;;;2.00;;
11386;SDS011;5748;53.102;8.456;2022-10-16T07:15:42;1.83;;;1.73;;
11386;SDS011;5748;53.102;8.456;2022-10-16T07:18:09;2.20;;;2.00;;
11386;SDS011;5748;53.102;8.456;2022-10-16T07:20:36;2.40;;;2.20;;
11386;SDS011;5748;53.102;8.456;2022-10-16T07:23:04;2.23;;;2.03;;
11386;SDS011;5748;53.102;8.456;2022-10-16T07:25:31;2.20;;;2.00;;
11386;SDS011;5748;53.102;8.456;2022-10-16T07:27:58;2.43;;;2.23;;
11386;SDS011;5748;53.102;8.456;2022-10-16T07:30:25;2.47;;;2.20;;
11386;SDS011;5748;53.102;8.456;2022-10-16T07:32:52;2.07;;;1.87;;
11386;SDS011;5748;53.102;8.456;2022-10-16T07:35:19;2.30;;;2.10;;
11386;SDS011;5748;53.102;8.456;2022-10-16T07:37:46;2.10;;;1.90;;
11386;SDS011;5748;53.102;8.456;2022-10-16T07:40:14;2.20;;;2.00;;
11386;SDS011;5748;53.102;8.456;2022-10-16T07:42:41;2.40;;;2.20;;
11386;SDS011;5748;53.102;8.456;2022-10-16T07:45:08;2.53;;;2.20;;
11386;SDS011;5748;53.102;8.456;2022-10-16T07:47:36;2.47;;;2.27;;
11386;SDS011;5748;53.102;8.456;2022-10-16T07:50:03;3.00;;;2.70;;
11386;SDS011;5748;53.102;8.456;2022-10-16T07:52:30;2.73;;;2.50;;
11386;SDS011;5748;53.102;8.456;2022-10-16T07:54:57;2.10;;;2.00;;
11386;SDS011;5748;53.102;8.456;2022-10-16T07:57:26;2.30;;;2.10;;
11386;SDS011;5748;53.102;8.456;2022-10-16T07:59:53;2.17;;;1.97;;
11386;SDS011;5748;53.102;8.456;2022-10-16T08:02:20;2.30;;;2.10;;
11386;SDS011;5748;53.102;8.456;2022-10-16T08:04:53;2.03;;;1.80;;
11386;SDS011;5748;53.102;8.456;2022-10-16T08:07:20;2.20;;;1.97;;
11386;SDS011;5748;53.102;8.456;2022-10-16T08:09:48;1.90;;;1.80;;
11386;SDS011;5748;53.102;8.456;2022-10-16T08:12:16;1.87;;;1.60;;
11386;SDS011;5748;53.102;8.456;2022-10-16T08:14:45;2.70;;;2.50;;
11386;SDS011;5748;53.102;8.456;2022-10-16T08:17:13;2.20;;;2.00;;
11386;SDS011;5748;53.102;8.456;2022-10-16T08:19:43;1.70;;;1.60;;
11386;SDS011;5748;53.102;8.456;2022-10-16T08:22:11;1.77;;;1.67;;
11386;SDS011;5748;53.102;8.456;2022-10-16T08:24:38;1.90;;;1.80;;
11386;SDS011;5748;53.102;8.456;2022-10-16T08:27:07;1.57;;;1.47;;
11386;SDS011;5748;53.102;8.456;2022-10-16T08:29:34;1.93;;;1.37;;
11386;SDS011;5748;53.102;8.456;2022-10-16T08:32:05;1.40;;;1.23;;
11386;SDS011;5748;53.102;8.456;2022-10-16T08:34:32;1.20;;;1.10;;
11386;SDS011;5748;53.102;8.456;2022-10-16T08:36:59;1.30;;;1.20;;
11386;SDS011;5748;53.102;8.456;2022-10-16T08:39:29;1.30;;;1.20;;
11386;SDS011;5748;53.102;8.456;2022-10-16T08:45:03;2.27;;;1.00;;
11386;SDS011;5748;53.102;8.456;2022-10-16T08:47:58;0.93;;;0.90;;
11386;SDS011;5748;53.102;8.456;2022-10-16T08:50:36;0.90;;;0.90;;
11386;SDS011;5748;53.102;8.456;2022-10-16T08:53:05;1.13;;;0.80;;
11386;SDS011;5748;53.102;8.456;2022-10-16T08:55:41;1.65;;;1.10;;
11386;SDS011;5748;53.102;8.456;2022-10-16T08:58:17;1.30;;;1.20;;
11386;SDS011;5748;53.102;8.456;2022-10-16T09:00:47;1.70;;;1.10;;
11386;SDS011;5748;53.102;8.456;2022-10-16T09:03:27;1.13;;;0.90;;
11386;SDS011;5748;53.102;8.456;2022-10-16T09:09:19;0.80;;;0.80;;
11386;SDS011;5748;53.102;8.456;2022-10-16T09:12:12;0.90;;;0.80;;
11386;SDS011;5748;53.102;8.456;2022-10-16T09:14:50;1.60;;;0.93;;
11386;SDS011;5748;53.102;8.456;2022-10-16T09:17:30;1.30;;;0.70;;
11386;SDS011;5748;53.102;8.456;2022-10-16T09:25:52;0.77;;;0.70;;
11386;SDS011;5748;53.102;8.456;2022-10-16T09:28:21;0.75;;;0.70;;
11386;SDS011;5748;53.102;8.456;2022-10-16T09:30:49;0.75;;;0.75;;
11386;SDS011;5748;53.102;8.456;2022-10-16T09:33:17;1.23;;;1.00;;
11386;SDS011;5748;53.102;8.456;2022-10-16T09:35:50;2.37;;;1.23;;
11386;SDS011;5748;53.102;8.456;2022-10-16T09:38:25;1.13;;;1.00;;
11386;SDS011;5748;53.102;8.456;2022-10-16T09:40:56;0.80;;;0.80;;
11386;SDS011;5748;53.102;8.456;2022-10-16T09:43:31;1.27;;;1.10;;
11386;SDS011;5748;53.102;8.456;2022-10-16T09:46:03;0.90;;;0.90;;
11386;SDS011;5748;53.102;8.456;2022-10-16T09:48:36;1.00;;;0.90;;
11386;SDS011;5748;53.102;8.456;2022-10-16T09:51:15;1.88;;;0.82;;
11386;SDS011;5748;53.102;8.456;2022-10-16T09:53:46;1.67;;;0.90;;
11386;SDS011;5748;53.102;8.456;2022-10-16T09:56:21;1.05;;;0.80;;
11386;SDS011;5748;53.102;8.456;2022-10-16T09:58:50;0.80;;;0.65;;
11386;SDS011;5748;53.102;8.456;2022-10-16T10:01:18;0.63;;;0.63;;
11386;SDS011;5748;53.102;8.456;2022-10-16T10:03:48;0.73;;;0.70;;
11386;SDS011;5748;53.102;8.456;2022-10-16T10:06:21;0.60;;;0.60;;
11386;SDS011;5748;53.102;8.456;2022-10-16T10:08:58;0.70;;;0.60;;
11386;SDS011;5748;53.102;8.456;2022-10-16T10:11:41;1.83;;;0.80;;
11386;SDS011;5748;53.102;8.456;2022-10-16T10:14:25;0.90;;;0.70;;
11386;SDS011;5748;53.102;8.456;2022-10-16T10:19:48;0.65;;;0.63;;
11386;SDS011;5748;53.102;8.456;2022-10-16T10:22:21;0.73;;;0.60;;
11386;SDS011;5748;53.102;8.456;2022-10-16T10:24:59;0.82;;;0.60;;
11386;SDS011;5748;53.102;8.456;2022-10-16T10:27:43;0.75;;;0.60;;
11386;SDS011;5748;53.102;8.456;2022-10-16T10:30:25;1.00;;;0.50;;
11386;SDS011;5748;53.102;8.456;2022-10-16T10:33:07;0.63;;;0.43;;
11386;SDS011;5748;53.102;8.456;2022-10-16T10:35:44;0.63;;;0.50;;
11386;SDS011;5748;53.102;8.456;2022-10-16T10:38:24;0.40;;;0.40;;
11386;SDS011;5748;53.102;8.456;2022-10-16T10:41:03;0.40;;;0.40;;
11386;SDS011;5748;53.102;8.456;2022-10-16T10:44:01;0.60;;;0.60;;
11386;SDS011;5748;53.102;8.456;2022-10-16T10:46:41;0.40;;;0.40;;
11386;SDS011;5748;53.102;8.456;2022-10-16T10:49:22;0.90;;;0.60;;
11386;SDS011;5748;53.102;8.456;2022-10-16T10:52:07;0.98;;;0.80;;
11386;SDS011;5748;53.102;8.456;2022-10-16T10:54:56;0.80;;;0.50;;
11386;SDS011;5748;53.102;8.456;2022-10-16T10:57:32;0.47;;;0.40;;
11386;SDS011;5748;53.102;8.456;2022-10-16T11:00:10;0.90;;;0.68;;
11386;SDS011;5748;53.102;8.456;2022-10-16T11:02:48;0.65;;;0.52;;
11386;SDS011;5748;53.102;8.456;2022-10-16T11:05:29;0.90;;;0.60;;
11386;SDS011;5748;53.102;8.456;2022-10-16T11:08:07;1.80;;;0.52;;
11386;SDS011;5748;53.102;8.456;2022-10-16T11:10:44;0.93;;;0.60;;
11386;SDS011;5748;53.102;8.456;2022-10-16T11:13:22;0.70;;;0.50;;
11386;SDS011;5748;53.102;8.456;2022-10-16T11:15:57;0.75;;;0.50;;
11386;SDS011;5748;53.102;8.456;2022-10-16T11:18:30;0.60;;;0.60;;
11386;SDS011;5748;53.102;8.456;2022-10-16T11:21:07;0.43;;;0.43;;
11386;SDS011;5748;53.102;8.456;2022-10-16T11:23:40;0.50;;;0.45;;
11386;SDS011;5748;53.102;8.456;2022-10-16T11:26:18;0.82;;;0.70;;
11386;SDS011;5748;53.102;8.456;2022-10-16T11:28:48;0.82;;;0.50;;
11386;SDS011;5748;53.102;8.456;2022-10-16T11:31:19;0.90;;;0.60;;
11386;SDS011;5748;53.102;8.456;2022-10-16T11:33:57;0.57;;;0.55;;
11386;SDS011;5748;53.102;8.456;2022-10-16T11:36:33;1.00;;;0.60;;
11386;SDS011;5748;53.102;8.456;2022-10-16T11:39:08;0.50;;;0.50;;
11386;SDS011;5748;53.102;8.456;2022-10-16T11:41:47;0.73;;;0.60;;
11386;SDS011;5748;53.102;8.456;2022-10-16T11:44:25;1.23;;;0.65;;
11386;SDS011;5748;53.102;8.456;2022-10-16T11:47:06;0.93;;;0.47;;
11386;SDS011;5748;53.102;8.456;2022-10-16T11:49:46;0.50;;;0.50;;
11386;SDS011;5748;53.102;8.456;2022-10-16T11:52:17;0.50;;;0.50;;
11386;SDS011;5748;53.102;8.456;2022-10-16T11:54:53;1.15;;;0.50;;
11386;SDS011;5748;53.102;8.456;2022-10-16T11:57:25;1.13;;;0.52;;
11386;SDS011;5748;53.102;8.456;2022-10-16T11:59:57;1.33;;;0.70;;
11386;SDS011;5748;53.102;8.456;2022-10-16T12:02:31;0.52;;;0.45;;
11386;SDS011;5748;53.102;8.456;2022-10-16T12:05:11;0.60;;;0.50;;
11386;SDS011;5748;53.102;8.456;2022-10-16T12:07:49;0.47;;;0.40;;
11386;SDS011;5748;53.102;8.456;2022-10-16T12:10:26;1.15;;;0.50;;
11386;SDS011;5748;53.102;8.456;2022-10-16T12:13:03;0.50;;;0.50;;
11386;SDS011;5748;53.102;8.456;2022-10-16T12:15:31;1.23;;;0.70;;
11386;SDS011;5748;53.102;8.456;2022-10-16T12:17:59;1.60;;;0.60;;
11386;SDS011;5748;53.102;8.456;2022-10-16T12:20:28;1.08;;;0.60;;
11386;SDS011;5748;53.102;8.456;2022-10-16T12:22:58;0.68;;;0.60;;
11386;SDS011;5748;53.102;8.456;2022-10-16T12:25:28;1.85;;;0.65;;
11386;SDS011;5748;53.102;8.456;2022-10-16T12:28:03;1.27;;;0.70;;
11386;SDS011;5748;53.102;8.456;2022-10-16T12:30:33;1.75;;;0.70;;
11386;SDS011;5748;53.102;8.456;2022-10-16T12:33:03;0.80;;;0.60;;
11386;SDS011;5748;53.102;8.456;2022-10-16T12:35:33;0.93;;;0.60;;
11386;SDS011;5748;53.102;8.456;2022-10-16T12:38:15;0.52;;;0.45;;
11386;SDS011;5748;53.102;8.456;2022-10-16T12:40:44;2.03;;;0.60;;
11386;SDS011;5748;53.102;8.456;2022-10-16T12:46:22;0.70;;;0.52;;
11386;SDS011;5748;53.102;8.456;2022-10-16T12:49:04;0.70;;;0.60;;
11386;SDS011;5748;53.102;8.456;2022-10-16T12:51:47;2.45;;;0.80;;
11386;SDS011;5748;53.102;8.456;2022-10-16T12:54:14;1.65;;;0.60;;
11386;SDS011;5748;53.102;8.456;2022-10-16T12:56:47;0.50;;;0.50;;
11386;SDS011;5748;53.102;8.456;2022-10-16T12:59:31;0.75;;;0.60;;
11386;SDS011;5748;53.102;8.456;2022-10-16T13:05:14;0.75;;;0.57;;
11386;SDS011;5748;53.102;8.456;2022-10-16T13:08:21;1.30;;;0.70;;
11386;SDS011;5748;53.102;8.456;2022-10-16T13:11:10;0.50;;;0.50;;
11386;SDS011;5748;53.102;8.456;2022-10-16T13:13:53;1.00;;;0.50;;
11386;SDS011;5748;53.102;8.456;2022-10-16T13:16:46;0.50;;;0.50;;
11386;SDS011;5748;53.102;8.456;2022-10-16T13:19:24;1.58;;;0.70;;
11386;SDS011;5748;53.102;8.456;2022-10-16T13:22:01;1.02;;;0.50;;
11386;SDS011;5748;53.102;8.456;2022-10-16T13:24:46;1.60;;;0.70;;
11386;SDS011;5748;53.102;8.456;2022-10-16T13:27:28;1.52;;;0.88;;
11386;SDS011;5748;53.102;8.456;2022-10-16T13:30:08;0.98;;;0.77;;
11386;SDS011;5748;53.102;8.456;2022-10-16T13:32:45;1.25;;;0.80;;
11386;SDS011;5748;53.102;8.456;2022-10-16T13:35:18;5.55;;;0.80;;
11386;SDS011;5748;53.102;8.456;2022-10-16T13:38:02;1.42;;;0.50;;
11386;SDS011;5748;53.102;8.456;2022-10-16T13:40:31;0.88;;;0.57;;
11386;SDS011;5748;53.102;8.456;2022-10-16T13:42:59;2.75;;;0.50;;
11386;SDS011;5748;53.102;8.456;2022-10-16T13:45:27;0.45;;;0.40;;
11386;SDS011;5748;53.102;8.456;2022-10-16T13:48:02;0.70;;;0.60;;
11386;SDS011;5748;53.102;8.456;2022-10-16T13:50:32;1.27;;;0.70;;
11386;SDS011;5748;53.102;8.456;2022-10-16T13:53:05;1.80;;;0.70;;
11386;SDS011;5748;53.102;8.456;2022-10-16T13:55:32;0.90;;;0.63;;
11386;SDS011;5748;53.102;8.456;2022-10-16T13:58:07;0.50;;;0.50;;
11386;SDS011;5748;53.102;8.456;2022-10-16T14:00:37;0.80;;;0.60;;
11386;SDS011;5748;53.102;8.456;2022-10-16T14:03:06;0.90;;;0.70;;
11386;SDS011;5748;53.102;8.456;2022-10-16T14:05:42;1.10;;;0.70;;
11386;SDS011;5748;53.102;8.456;2022-10-16T14:08:13;1.93;;;0.67;;
11386;SDS011;5748;53.102;8.456;2022-10-16T14:10:40;1.40;;;0.67;;
11386;SDS011;5748;53.102;8.456;2022-10-16T14:13:07;0.88;;;0.60;;
11386;SDS011;5748;53.102;8.456;2022-10-16T14:15:45;0.50;;;0.50;;
11386;SDS011;5748;53.102;8.456;2022-10-16T14:18:19;0.87;;;0.63;;
11386;SDS011;5748;53.102;8.456;2022-10-16T14:20:48;0.60;;;0.60;;
11386;SDS011;5748;53.102;8.456;2022-10-16T14:23:20;1.13;;;0.70;;
11386;SDS011;5748;53.102;8.456;2022-10-16T14:25:51;0.50;;;0.50;;
11386;SDS011;5748;53.102;8.456;2022-10-16T14:28:19;1.00;;;0.90;;
11386;SDS011;5748;53.102;8.456;2022-10-16T14:30:52;0.70;;;0.57;;
11386;SDS011;5748;53.102;8.456;2022-10-16T14:33:23;1.70;;;0.80;;
11386;SDS011;5748;53.102;8.456;2022-10-16T14:36:02;1.30;;;0.70;;
11386;SDS011;5748;53.102;8.456;2022-10-16T14:38:32;1.17;;;0.70;;
11386;SDS011;5748;53.102;8.456;2022-10-16T14:40:59;0.77;;;0.53;;
11386;SDS011;5748;53.102;8.456;2022-10-16T14:43:29;0.93;;;0.63;;
11386;SDS011;5748;53.102;8.456;2022-10-16T14:45:59;1.23;;;0.60;;
11386;SDS011;5748;53.102;8.456;2022-10-16T14:48:31;0.50;;;0.50;;
11386;SDS011;5748;53.102;8.456;2022-10-16T14:50:59;0.67;;;0.57;;
11386;SDS011;5748;53.102;8.456;2022-10-16T14:53:26;0.50;;;0.50;;
11386;SDS011;5748;53.102;8.456;2022-10-16T14:55:53;0.73;;;0.60;;
11386;SDS011;5748;53.102;8.456;2022-10-16T14:58:20;1.40;;;0.80;;
11386;SDS011;5748;53.102;8.456;2022-10-16T15:00:49;0.97;;;0.53;;
11386;SDS011;5748;53.102;8.456;2022-10-16T15:03:16;1.10;;;0.60;;
11386;SDS011;5748;53.102;8.456;2022-10-16T15:05:45;3.07;;;0.77;;
11386;SDS011;5748;53.102;8.456;2022-10-16T15:08:12;1.60;;;0.80;;
11386;SDS011;5748;53.102;8.456;2022-10-16T15:10:40;1.33;;;0.57;;
11386;SDS011;5748;53.102;8.456;2022-10-16T15:13:11;0.50;;;0.50;;
11386;SDS011;5748;53.102;8.456;2022-10-16T15:15:40;0.97;;;0.60;;
11386;SDS011;5748;53.102;8.456;2022-10-16T15:18:09;0.50;;;0.50;;
11386;SDS011;5748;53.102;8.456;2022-10-16T15:20:37;0.60;;;0.57;;
11386;SDS011;5748;53.102;8.456;2022-10-16T15:23:10;1.27;;;0.70;;
11386;SDS011;5748;53.102;8.456;2022-10-16T15:25:41;0.90;;;0.63;;
11386;SDS011;5748;53.102;8.456;2022-10-16T15:28:10;0.73;;;0.60;;
11386;SDS011;5748;53.102;8.456;2022-10-16T15:30:39;0.87;;;0.50;;
11386;SDS011;5748;53.102;8.456;2022-10-16T15:33:10;0.67;;;0.50;;
11386;SDS011;5748;53.102;8.456;2022-10-16T15:35:40;0.57;;;0.50;;
11386;SDS011;5748;53.102;8.456;2022-10-16T15:38:10;0.40;;;0.40;;
11386;SDS011;5748;53.102;8.456;2022-10-16T15:40:39;0.73;;;0.50;;
11386;SDS011;5748;53.102;8.456;2022-10-16T15:43:06;0.90;;;0.50;;
11386;SDS011;5748;53.102;8.456;2022-10-16T15:45:34;1.57;;;1.30;;
11386;SDS011;5748;53.102;8.456;2022-10-16T15:48:01;2.40;;;1.70;;
11386;SDS011;5748;53.102;8.456;2022-10-16T15:50:29;2.60;;;2.07;;
11386;SDS011;5748;53.102;8.456;2022-10-16T15:52:57;3.47;;;2.30;;
11386;SDS011;5748;53.102;8.456;2022-10-16T15:55:25;3.93;;;2.53;;
11386;SDS011;5748;53.102;8.456;2022-10-16T15:57:52;3.87;;;3.13;;
11386;SDS011;5748;53.102;8.456;2022-10-16T16:00:19;5.30;;;3.27;;
11386;SDS011;5748;53.102;8.456;2022-10-16T16:02:49;2.77;;;2.50;;
11386;SDS011;5748;53.102;8.456;2022-10-16T16:05:18;2.23;;;1.80;;
11386;SDS011;5748;53.102;8.456;2022-10-16T16:07:46;2.87;;;2.00;;
11386;SDS011;5748;53.102;8.456;2022-10-16T16:10:13;2.67;;;1.20;;
11386;SDS011;5748;53.102;8.456;2022-10-16T16:12:44;1.43;;;1.10;;
11386;SDS011;5748;53.102;8.456;2022-10-16T16:15:16;0.87;;;0.83;;
11386;SDS011;5748;53.102;8.456;2022-10-16T16:17:45;1.10;;;0.90;;